createdAt,value
2022-12-01T00:01:34.373Z,14.20
2022-12-01T00:04:01.978Z,14.57
2022-12-01T00:06:30.419Z,14.15
2022-12-01T00:09:19.665Z,13.13
2022-12-01T00:11:48.501Z,14.77
2022-12-01T00:14:16.458Z,14.48
2022-12-01T00:16:44.678Z,13.65
2022-12-01T00:19:12.395Z,14.20
2022-12-01T00:21:39.904Z,13.38
2022-12-01T00:24:07.789Z,14.43
2022-12-01T00:26:37.133Z,14.30
2022-12-01T00:29:04.534Z,14.43
2022-12-01T00:31:32.073Z,14.07
2022-12-01T00:33:59.552Z,13.60
2022-12-01T00:36:27.171Z,14.27
2022-12-01T00:38:56.067Z,14.02
2022-12-01T00:41:25.513Z,15.18
2022-12-01T00:43:52.968Z,22.63
2022-12-01T00:46:20.438Z,15.43
2022-12-01T00:48:48.171Z,14.63
2022-12-01T00:51:15.547Z,14.35
2022-12-01T00:53:42.931Z,18.40
2022-12-01T00:56:10.381Z,15.23
2022-12-01T00:58:37.839Z,19.48
2022-12-01T01:01:05.514Z,15.45
2022-12-01T01:03:33.760Z,14.30
2022-12-01T01:06:12.072Z,15.25
2022-12-01T01:08:40.412Z,15.52
2022-12-01T01:11:09.236Z,15.25
2022-12-01T01:13:38.490Z,14.80
2022-12-01T01:16:20.958Z,14.68
2022-12-01T01:18:49.007Z,14.75
2022-12-01T01:21:18.496Z,15.38
2022-12-01T01:23:45.928Z,13.95
2022-12-01T01:26:19.180Z,14.65
2022-12-01T01:28:47.970Z,15.60
2022-12-01T01:31:19.017Z,13.60
2022-12-01T01:36:15.878Z,14.07
2022-12-01T01:38:44.005Z,15.55
2022-12-01T01:41:11.828Z,14.30
2022-12-01T01:43:59.324Z,14.13
2022-12-01T01:46:31.272Z,14.80
2022-12-01T01:49:11.381Z,14.90
2022-12-01T01:51:41.508Z,15.20
2022-12-01T01:54:34.401Z,14.47
2022-12-01T01:57:04.030Z,13.70
2022-12-01T01:59:45.093Z,13.93
2022-12-01T02:02:13.153Z,13.93
2022-12-01T02:04:48.957Z,13.45
2022-12-01T02:07:18.859Z,13.48
2022-12-01T02:09:47.129Z,14.23
2022-12-01T02:12:22.401Z,13.65
2022-12-01T02:15:07.709Z,14.45
2022-12-01T02:17:42.001Z,13.68
2022-12-01T02:20:34.070Z,12.15
2022-12-01T02:23:22.986Z,12.55
2022-12-01T02:26:11.857Z,14.38
2022-12-01T02:28:48.026Z,12.88
2022-12-01T02:31:55.675Z,13.18
2022-12-01T02:34:37.503Z,12.85
2022-12-01T02:37:22.558Z,14.38
2022-12-01T02:40:12.357Z,14.00
2022-12-01T02:42:53.715Z,14.43
2022-12-01T02:45:28.458Z,15.15
2022-12-01T02:48:00.852Z,13.18
2022-12-01T02:50:30.602Z,13.85
2022-12-01T02:52:59.413Z,13.48
2022-12-01T02:55:26.816Z,13.68
2022-12-01T02:57:54.228Z,15.07
2022-12-01T03:00:21.679Z,13.77
2022-12-01T03:03:21.478Z,13.57
2022-12-01T03:06:10.041Z,13.63
2022-12-01T03:09:00.135Z,13.70
2022-12-01T03:11:37.631Z,13.73
2022-12-01T03:14:04.956Z,13.65
2022-12-01T03:16:53.109Z,14.15
2022-12-01T03:19:35.739Z,14.25
2022-12-01T03:22:19.278Z,14.10
2022-12-01T03:24:49.186Z,14.18
2022-12-01T03:27:21.798Z,15.07
2022-12-01T03:29:53.244Z,13.77
2022-12-01T03:32:27.783Z,13.23
2022-12-01T03:35:11.024Z,13.55
2022-12-01T03:37:44.990Z,13.93
2022-12-01T03:40:18.361Z,14.48
2022-12-01T03:42:55.551Z,13.50
2022-12-01T03:45:44.867Z,15.00
2022-12-01T03:48:12.427Z,14.50
2022-12-01T03:50:55.705Z,13.43
2022-12-01T03:53:31.639Z,13.95
2022-12-01T03:56:06.129Z,14.65
2022-12-01T03:58:38.766Z,13.45
2022-12-01T04:01:08.214Z,13.82
2022-12-01T04:03:36.112Z,15.13
2022-12-01T04:06:03.829Z,13.80
2022-12-01T04:08:33.750Z,13.43
2022-12-01T04:11:21.107Z,14.65
2022-12-01T04:13:48.516Z,13.60
2022-12-01T04:16:15.978Z,13.18
2022-12-01T04:18:43.561Z,13.65
2022-12-01T04:21:10.925Z,14.05
2022-12-01T04:23:56.987Z,13.57
2022-12-01T04:26:24.427Z,13.45
2022-12-01T04:28:51.846Z,12.77
2022-12-01T04:31:19.351Z,11.55
2022-12-01T04:33:46.801Z,13.35
2022-12-01T04:36:14.192Z,12.63
2022-12-01T04:38:41.546Z,13.45
2022-12-01T04:41:10.473Z,12.27
2022-12-01T04:43:38.330Z,13.02
2022-12-01T04:46:06.472Z,11.70
2022-12-01T04:48:38.864Z,11.57
2022-12-01T04:51:08.368Z,12.15
2022-12-01T04:53:36.644Z,12.23
2022-12-01T04:56:04.885Z,12.07
2022-12-01T04:58:33.309Z,10.13
2022-12-01T05:01:13.085Z,11.30
2022-12-01T05:03:43.178Z,10.73
2022-12-01T05:06:13.677Z,10.50
2022-12-01T05:08:41.597Z,11.18
2022-12-01T05:11:11.839Z,10.07
2022-12-01T05:13:40.503Z,10.27
2022-12-01T05:16:09.532Z,10.85
2022-12-01T05:18:37.243Z,9.73
2022-12-01T05:21:06.263Z,10.10
2022-12-01T05:23:36.133Z,10.77
2022-12-01T05:26:06.462Z,10.48
2022-12-01T05:28:34.049Z,10.73
2022-12-01T05:31:02.171Z,9.52
2022-12-01T05:33:31.782Z,10.27
2022-12-01T05:35:59.289Z,10.05
2022-12-01T05:38:26.765Z,9.23
2022-12-01T05:40:55.968Z,9.88
2022-12-01T05:43:28.734Z,9.18
2022-12-01T05:45:57.394Z,9.85
2022-12-01T05:48:25.573Z,8.18
2022-12-01T05:50:52.975Z,8.38
2022-12-01T05:53:20.641Z,9.13
2022-12-01T05:55:53.318Z,8.00
2022-12-01T05:58:22.169Z,8.15
2022-12-01T06:00:49.672Z,7.65
2022-12-01T06:03:17.074Z,8.57
2022-12-01T06:05:44.469Z,8.32
2022-12-01T06:08:11.847Z,8.25
2022-12-01T06:10:39.311Z,7.88
2022-12-01T06:13:06.747Z,7.80
2022-12-01T06:15:34.295Z,8.35
2022-12-01T06:18:02.283Z,7.85
2022-12-01T06:20:29.692Z,8.30
2022-12-01T06:22:57.101Z,7.90
2022-12-01T06:25:24.502Z,7.97
2022-12-01T06:27:58.856Z,7.70
2022-12-01T06:30:26.402Z,8.60
2022-12-01T06:32:53.803Z,8.60
2022-12-01T06:35:21.197Z,10.13
2022-12-01T06:37:48.742Z,8.60
2022-12-01T06:40:16.884Z,9.57
2022-12-01T06:42:44.318Z,8.50
2022-12-01T06:45:12.472Z,9.77
2022-12-01T06:47:40.163Z,9.25
2022-12-01T06:50:09.955Z,9.73
2022-12-01T06:52:37.521Z,9.57
2022-12-01T06:55:05.923Z,9.40
2022-12-01T06:57:33.499Z,9.05
2022-12-01T07:00:00.971Z,10.23
2022-12-01T07:02:29.027Z,9.55
2022-12-01T07:04:56.420Z,9.85
2022-12-01T07:07:24.280Z,9.55
2022-12-01T07:09:51.803Z,10.52
2022-12-01T07:12:19.374Z,10.82
2022-12-01T07:14:46.748Z,10.50
2022-12-01T07:17:14.128Z,11.95
2022-12-01T07:19:41.519Z,11.38
2022-12-01T07:22:08.884Z,11.27
2022-12-01T07:24:36.390Z,11.23
2022-12-01T07:27:03.805Z,11.32
2022-12-01T07:29:31.211Z,11.63
2022-12-01T07:31:58.596Z,11.88
2022-12-01T07:34:26.036Z,10.95
2022-12-01T07:36:53.586Z,10.98
2022-12-01T07:39:20.893Z,11.50
2022-12-01T07:41:48.464Z,12.35
2022-12-01T07:44:15.890Z,14.07
2022-12-01T07:46:43.344Z,12.82
2022-12-01T07:49:14.825Z,13.23
2022-12-01T07:51:42.314Z,12.98
2022-12-01T07:54:11.123Z,11.45
2022-12-01T07:56:38.482Z,11.98
2022-12-01T07:59:06.009Z,12.02
2022-12-01T08:01:33.412Z,14.57
2022-12-01T08:04:01.053Z,12.25
2022-12-01T08:06:28.481Z,13.80
2022-12-01T08:08:56.220Z,12.73
2022-12-01T08:11:29.851Z,13.07
2022-12-01T08:13:57.467Z,14.43
2022-12-01T08:16:25.528Z,13.05
2022-12-01T08:18:53.673Z,13.50
2022-12-01T08:21:23.055Z,12.80
2022-12-01T08:23:55.733Z,12.13
2022-12-01T08:26:24.672Z,12.57
2022-12-01T08:28:52.222Z,12.15
2022-12-01T08:31:29.335Z,11.75
2022-12-01T08:33:58.064Z,12.80
2022-12-01T08:36:26.039Z,13.07
2022-12-01T08:38:55.238Z,12.32
2022-12-01T08:41:24.206Z,12.73
2022-12-01T08:44:00.063Z,12.63
2022-12-01T08:46:31.103Z,12.20
2022-12-01T08:48:58.611Z,12.00
2022-12-01T08:51:26.899Z,12.13
2022-12-01T08:53:56.071Z,11.85
2022-12-01T08:56:27.271Z,14.13
2022-12-01T09:01:22.816Z,12.77
2022-12-01T09:04:05.421Z,14.05
2022-12-01T09:06:39.005Z,12.70
2022-12-01T09:09:07.206Z,13.27
2022-12-01T09:11:35.496Z,13.73
2022-12-01T09:14:02.894Z,13.45
2022-12-01T09:16:30.465Z,13.45
2022-12-01T09:18:58.078Z,15.02
2022-12-01T09:21:30.415Z,13.00
2022-12-01T09:23:58.532Z,13.93
2022-12-01T09:26:27.370Z,13.98
2022-12-01T09:29:01.041Z,14.10
2022-12-01T09:31:29.264Z,15.35
2022-12-01T09:33:59.507Z,14.93
2022-12-01T09:36:30.214Z,14.70
2022-12-01T09:38:58.484Z,15.02
2022-12-01T09:41:37.215Z,14.45
2022-12-01T09:44:14.263Z,14.93
2022-12-01T09:46:50.195Z,13.90
2022-12-01T09:49:22.982Z,15.35
2022-12-01T09:51:52.579Z,13.80
2022-12-01T09:54:20.327Z,13.02
2022-12-01T09:56:52.975Z,13.48
2022-12-01T09:59:24.277Z,14.15
2022-12-01T10:01:56.037Z,14.55
2022-12-01T10:04:36.402Z,12.60
2022-12-01T10:07:14.982Z,13.17
2022-12-01T10:09:46.595Z,12.85
2022-12-01T10:12:17.226Z,14.30
2022-12-01T10:14:47.120Z,11.80
2022-12-01T10:17:41.752Z,13.07
2022-12-01T10:20:35.818Z,12.77
2022-12-01T10:23:30.445Z,13.57
2022-12-01T10:25:59.463Z,12.70
2022-12-01T10:28:52.634Z,12.35
2022-12-01T10:31:44.678Z,11.65
2022-12-01T10:34:17.527Z,14.48
2022-12-01T10:36:45.410Z,12.18
2022-12-01T10:39:37.782Z,11.73
2022-12-01T10:42:19.323Z,12.43
2022-12-01T10:44:47.241Z,11.88
2022-12-01T10:47:20.939Z,12.90
2022-12-01T10:49:48.804Z,12.25
2022-12-01T10:52:38.928Z,12.43
2022-12-01T10:55:29.352Z,12.15
2022-12-01T10:57:59.806Z,13.03
2022-12-01T11:00:58.436Z,13.25
2022-12-01T11:03:30.313Z,11.98
2022-12-01T11:06:00.706Z,12.05
2022-12-01T11:08:46.100Z,12.73
2022-12-01T11:11:33.486Z,12.00
2022-12-01T11:14:05.624Z,12.43
2022-12-01T11:16:45.500Z,12.35
2022-12-01T11:19:32.723Z,12.07
2022-12-01T11:22:23.343Z,12.02
2022-12-01T11:24:53.714Z,11.93
2022-12-01T11:27:23.850Z,13.00
2022-12-01T11:29:58.131Z,11.57
2022-12-01T11:32:29.741Z,12.13
2022-12-01T11:35:05.472Z,10.55
2022-12-01T11:38:27.726Z,13.15
2022-12-01T11:41:00.856Z,12.43
2022-12-01T11:43:35.884Z,12.73
2022-12-01T11:46:06.451Z,12.88
2022-12-01T11:48:36.345Z,13.13
2022-12-01T11:51:12.674Z,11.82
2022-12-01T11:53:42.682Z,11.15
2022-12-01T11:56:28.874Z,12.15
2022-12-01T11:59:13.963Z,9.82
2022-12-01T12:01:47.066Z,11.02
2022-12-01T12:04:38.036Z,10.80
2022-12-01T12:07:43.919Z,12.40
2022-12-01T12:10:35.880Z,10.80
2022-12-01T12:13:19.153Z,10.70
2022-12-01T12:15:56.860Z,10.55
2022-12-01T12:18:51.970Z,10.73
2022-12-01T12:21:22.380Z,11.73
2022-12-01T12:24:07.505Z,12.90
2022-12-01T12:27:01.051Z,11.85
2022-12-01T12:29:47.215Z,9.57
2022-12-01T12:32:28.831Z,10.15
2022-12-01T12:35:21.769Z,9.63
2022-12-01T12:38:25.188Z,10.63
2022-12-01T12:41:18.935Z,10.00
2022-12-01T12:44:02.377Z,9.65
2022-12-01T12:47:05.087Z,9.38
2022-12-01T12:49:57.769Z,9.23
2022-12-01T12:52:30.252Z,9.88
2022-12-01T12:55:12.783Z,9.13
2022-12-01T12:57:59.770Z,9.00
2022-12-01T13:00:29.211Z,8.45
2022-12-01T13:03:19.891Z,7.30
2022-12-01T13:06:06.806Z,7.90
2022-12-01T13:08:42.642Z,7.78
2022-12-01T13:11:24.659Z,7.93
2022-12-01T13:14:15.184Z,8.25
2022-12-01T13:16:49.092Z,7.95
2022-12-01T13:19:28.632Z,7.38
2022-12-01T13:21:57.633Z,7.65
2022-12-01T13:24:28.541Z,6.57
2022-12-01T13:27:10.845Z,7.50
2022-12-01T13:29:44.022Z,6.88
2022-12-01T13:32:36.667Z,7.35
2022-12-01T13:35:36.376Z,7.10
2022-12-01T13:38:24.964Z,7.15
2022-12-01T13:41:13.900Z,7.00
2022-12-01T13:44:07.587Z,7.70
2022-12-01T13:46:44.044Z,8.32
2022-12-01T13:49:42.174Z,6.97
2022-12-01T13:52:19.124Z,7.78
2022-12-01T13:55:12.248Z,8.02
2022-12-01T13:57:59.085Z,6.82
2022-12-01T14:00:28.675Z,6.82
2022-12-01T14:03:19.307Z,6.57
2022-12-01T14:05:53.155Z,7.15
2022-12-01T14:08:24.645Z,6.88
2022-12-01T14:10:56.348Z,7.10
2022-12-01T14:13:24.875Z,8.05
2022-12-01T14:15:56.889Z,7.70
2022-12-01T14:18:38.301Z,7.55
2022-12-01T14:21:11.575Z,8.05
2022-12-01T14:24:02.698Z,8.43
2022-12-01T14:26:30.925Z,7.47
2022-12-01T14:29:01.530Z,7.68
2022-12-01T14:31:35.101Z,8.50
2022-12-01T14:34:07.739Z,7.32
2022-12-01T14:36:48.635Z,8.07
2022-12-01T14:39:21.708Z,8.30
2022-12-01T14:42:12.499Z,8.30
2022-12-01T14:44:47.704Z,8.50
2022-12-01T14:47:24.879Z,8.13
2022-12-01T14:50:09.974Z,7.70
2022-12-01T14:52:42.265Z,9.25
2022-12-01T14:55:21.463Z,8.52
2022-12-01T14:57:51.642Z,9.93
2022-12-01T15:00:24.129Z,10.80
2022-12-01T15:02:57.871Z,12.27
2022-12-01T15:05:28.462Z,13.18
2022-12-01T15:08:18.761Z,12.70
2022-12-01T15:11:02.663Z,13.40
2022-12-01T15:13:34.298Z,13.68
2022-12-01T15:16:13.295Z,14.30
2022-12-01T15:18:40.770Z,15.23
2022-12-01T15:21:11.846Z,14.90
2022-12-01T15:26:24.130Z,16.60
2022-12-01T15:29:03.780Z,14.82
2022-12-01T15:31:31.739Z,15.50
2022-12-01T15:33:59.589Z,16.02
2022-12-01T15:36:27.122Z,16.15
2022-12-01T15:38:54.756Z,14.73
2022-12-01T15:41:30.629Z,16.08
2022-12-01T15:44:01.961Z,15.63
2022-12-01T15:46:36.868Z,14.10
2022-12-01T15:49:33.678Z,15.65
2022-12-01T15:52:11.274Z,13.93
2022-12-01T15:54:39.622Z,16.85
2022-12-01T15:57:07.359Z,15.27
2022-12-01T15:59:44.508Z,15.45
2022-12-01T16:02:31.829Z,16.00
2022-12-01T16:05:30.170Z,15.70
2022-12-01T16:08:14.052Z,14.27
2022-12-01T16:10:41.795Z,14.85
2022-12-01T16:13:40.126Z,16.00
2022-12-01T16:16:44.637Z,15.40
2022-12-01T16:19:12.012Z,14.98
2022-12-01T16:21:47.378Z,17.13
2022-12-01T16:24:36.271Z,16.13
2022-12-01T16:27:07.474Z,16.80
2022-12-01T16:29:54.556Z,18.20
2022-12-01T16:33:00.862Z,17.60
2022-12-01T16:35:31.051Z,18.23
2022-12-01T16:38:00.075Z,16.42
2022-12-01T16:40:27.822Z,19.17
2022-12-01T16:42:56.375Z,18.42
2022-12-01T16:45:26.933Z,18.17
2022-12-01T16:47:54.594Z,18.90
2022-12-01T16:50:22.959Z,18.58
2022-12-01T16:52:50.335Z,17.13
2022-12-01T16:55:23.929Z,19.25
2022-12-01T16:57:51.391Z,17.95
2022-12-01T17:00:19.198Z,19.60
2022-12-01T17:02:46.590Z,18.63
2022-12-01T17:05:14.090Z,20.15
2022-12-01T17:07:41.485Z,20.23
2022-12-01T17:10:09.428Z,21.33
2022-12-01T17:12:37.033Z,22.73
2022-12-01T17:15:04.885Z,21.73
2022-12-01T17:17:32.307Z,22.52
2022-12-01T17:19:59.893Z,25.67
2022-12-01T17:22:27.499Z,27.58
2022-12-01T17:24:55.571Z,24.23
2022-12-01T17:27:24.602Z,26.95
2022-12-01T17:29:52.675Z,26.27
2022-12-01T17:32:20.291Z,30.05
2022-12-01T17:34:47.875Z,27.00
2022-12-01T17:37:20.660Z,23.92
2022-12-01T17:39:49.807Z,24.70
2022-12-01T17:42:17.483Z,22.10
2022-12-01T17:44:44.853Z,29.52
2022-12-01T17:47:12.796Z,24.13
2022-12-01T17:49:40.182Z,28.98
2022-12-01T17:52:08.473Z,25.17
2022-12-01T17:54:35.957Z,23.42
2022-12-01T17:57:04.020Z,22.73
2022-12-01T17:59:31.439Z,22.42
2022-12-01T18:01:59.017Z,22.70
2022-12-01T18:04:26.463Z,22.35
2022-12-01T18:06:54.695Z,24.48
2022-12-01T18:09:22.782Z,23.25
2022-12-01T18:11:50.392Z,21.42
2022-12-01T18:14:17.987Z,22.08
2022-12-01T18:16:45.914Z,22.63
2022-12-01T18:19:13.529Z,21.65
2022-12-01T18:21:41.532Z,20.27
2022-12-01T18:24:10.257Z,23.15
2022-12-01T18:26:39.954Z,22.00
2022-12-01T18:29:13.978Z,21.50
2022-12-01T18:31:41.975Z,25.17
2022-12-01T18:34:11.151Z,27.67
2022-12-01T18:36:40.555Z,21.85
2022-12-01T18:39:09.195Z,22.13
2022-12-01T18:41:37.201Z,20.02
2022-12-01T18:44:04.978Z,21.58
2022-12-01T18:46:32.887Z,23.52
2022-12-01T18:49:04.580Z,17.17
2022-12-01T18:51:34.883Z,24.08
2022-12-01T18:54:04.104Z,18.83
2022-12-01T18:56:31.959Z,19.50
2022-12-01T18:59:06.836Z,17.83
2022-12-01T19:01:36.859Z,18.70
2022-12-01T19:04:05.458Z,19.17
2022-12-01T19:06:34.297Z,20.35
2022-12-01T19:09:04.424Z,18.65
2022-12-01T19:11:33.209Z,18.33
2022-12-01T19:18:10.356Z,22.67
2022-12-01T19:20:38.010Z,19.20
2022-12-01T19:23:05.453Z,19.60
2022-12-01T19:25:32.905Z,17.77
2022-12-01T19:28:00.392Z,20.00
2022-12-01T19:30:27.916Z,20.40
2022-12-01T19:32:55.855Z,20.90
2022-12-01T19:35:23.191Z,21.10
2022-12-01T19:37:52.227Z,18.52
2022-12-01T19:40:19.627Z,21.67
2022-12-01T19:42:47.027Z,18.80
2022-12-01T19:45:14.477Z,19.83
2022-12-01T19:47:41.974Z,20.60
2022-12-01T19:50:10.074Z,35.67
2022-12-01T19:52:37.563Z,20.55
2022-12-01T19:55:05.896Z,19.90
2022-12-01T19:57:33.347Z,19.60
2022-12-01T20:00:00.796Z,20.33
2022-12-01T20:02:29.499Z,19.80
2022-12-01T20:04:57.100Z,20.27
2022-12-01T20:07:24.576Z,31.70
2022-12-01T20:09:52.172Z,24.15
2022-12-01T20:12:19.713Z,23.30
2022-12-01T20:14:47.239Z,20.33
2022-12-01T20:17:16.172Z,24.67
2022-12-01T20:19:43.675Z,20.98
2022-12-01T20:22:11.067Z,21.27
2022-12-01T20:24:41.185Z,22.90
2022-12-01T20:27:08.769Z,22.33
2022-12-01T20:29:36.211Z,22.77
2022-12-01T20:32:04.310Z,23.55
2022-12-01T20:34:34.930Z,23.23
2022-12-01T20:37:02.911Z,23.23
2022-12-01T20:39:32.484Z,23.90
2022-12-01T20:42:00.161Z,22.17
2022-12-01T20:44:27.596Z,37.88
2022-12-01T20:46:54.984Z,61.78
2022-12-01T20:49:22.919Z,22.92
2022-12-01T20:51:50.360Z,22.10
2022-12-01T20:54:27.841Z,23.13
2022-12-01T20:56:58.313Z,24.10
2022-12-01T20:59:25.814Z,23.45
2022-12-01T21:01:53.372Z,28.80
2022-12-01T21:04:20.999Z,24.50
2022-12-01T21:06:49.985Z,22.77
2022-12-01T21:09:18.088Z,23.13
2022-12-01T21:12:07.345Z,21.92
2022-12-01T21:14:43.121Z,22.48
2022-12-01T21:17:41.855Z,22.52
2022-12-01T21:20:21.446Z,21.77
2022-12-01T21:22:50.406Z,23.00
2022-12-01T21:25:23.414Z,23.63
2022-12-01T21:27:50.966Z,21.67
2022-12-01T21:30:21.893Z,24.50
2022-12-01T21:32:49.911Z,22.65
2022-12-01T21:35:26.044Z,20.63
2022-12-01T21:38:04.514Z,22.75
2022-12-01T21:40:32.266Z,22.90
2022-12-01T21:43:20.661Z,19.83
2022-12-01T21:46:14.750Z,20.73
2022-12-01T21:48:42.932Z,21.90
2022-12-01T21:51:21.003Z,23.48
2022-12-01T21:53:48.969Z,19.45
2022-12-01T21:56:26.789Z,20.35
2022-12-01T21:58:58.892Z,50.22
2022-12-01T22:01:31.996Z,25.70
2022-12-01T22:04:02.377Z,19.45
2022-12-01T22:06:38.107Z,19.35
2022-12-01T22:09:26.741Z,19.48
2022-12-01T22:11:55.844Z,19.80
2022-12-01T22:14:35.827Z,19.80
2022-12-01T22:17:20.530Z,22.52
2022-12-01T22:20:02.303Z,23.33
2022-12-01T22:22:32.820Z,18.90
2022-12-01T22:25:15.869Z,20.45
2022-12-01T22:27:43.976Z,19.33
2022-12-01T22:30:16.834Z,19.52
2022-12-01T22:32:44.359Z,19.13
2022-12-01T22:35:38.903Z,18.35
2022-12-01T22:38:06.241Z,17.40
2022-12-01T22:40:40.272Z,19.58
2022-12-01T22:43:17.112Z,18.20
2022-12-01T22:45:58.169Z,18.13
2022-12-01T22:48:36.104Z,17.45
2022-12-01T22:51:26.262Z,20.48
2022-12-01T22:54:43.178Z,17.35
2022-12-01T22:57:26.380Z,21.70
2022-12-01T22:59:55.182Z,15.80
2022-12-01T23:02:33.008Z,16.23
2022-12-01T23:05:28.019Z,15.70
2022-12-01T23:07:56.177Z,16.10
2022-12-01T23:10:28.343Z,16.75
2022-12-01T23:13:00.317Z,16.63
2022-12-01T23:15:33.475Z,17.98
2022-12-01T23:18:20.111Z,17.35
2022-12-01T23:20:52.977Z,16.95
2022-12-01T23:23:25.836Z,18.17
2022-12-01T23:25:53.465Z,18.58
2022-12-01T23:28:21.100Z,25.27
2022-12-01T23:30:52.523Z,21.98
2022-12-01T23:33:22.830Z,17.80
2022-12-01T23:36:01.138Z,17.45
2022-12-01T23:38:49.179Z,17.45
2022-12-01T23:41:25.797Z,16.70
2022-12-01T23:43:55.411Z,15.38
2022-12-01T23:46:27.048Z,16.17
2022-12-01T23:48:56.932Z,17.25
2022-12-01T23:51:32.261Z,15.57
2022-12-01T23:54:06.188Z,16.98
2022-12-01T23:56:33.589Z,15.98
2022-12-01T23:59:01.224Z,16.27
